LYKA weather

Kraljevo Brege
Kraljevo, Raška, Serbia

Public forecast

Using degrees Celsius for public forecast. Weather courtesy of forecast.io.

METAR (pilot weather report)

Closest report is Morava Airport, 7.7 nm (14.2 km) NW. Retrieved 2019/06/17 07:30 UTC (29 minutes ago):

LYKV 170730Z 28006KT 240V310 9999 SCT033 23/17 Q1017 NOSIG

TAF (pilot weather forecast)

Closest forecast is Morava Airport, 7.7 nm (14.2 km) NW. Retrieved 2019/06/17 06:00 UTC (2 hours ago):

TAF LYKV 170500Z 1706/1806 04005KT 9999 SCT020 BKN040 TX27/1713Z TN17/1803Z TEMPO 1710/1719 30015KT 3000 TSRA SCT027CB BKN033 TEMPO 1802/1805 1500 BR BKN005